Main page
METAR-TAF:

METAR-TAF

Airports :

Aérodrome de Dax - Seyresse

Dax, France

latitude: 43-41N, longitude: 001-04W, elevation: 32 m

Current weather observation

The report was made 30 minutes ago, at 21:00 UTC
Wind 3 kt from the South
Temperature 19°C
Humidity 52%
Pressure 1018 hPa
Visibility 10 km or more

METAR: LFBY 092100Z AUTO 17003KT 9999 // ////// 19/09 Q1018

Time: 23:30 (21:30 UTC)

Forecast

The report was made 13 hours and 30 minutes ago, at 08:00 UTC
Forecast valid from 09 at 09 UTC to 09 at 18 UTC
Wind 5 kt from the East/Northeast
Visibility 10 km or more
no clouds below 1500 m and no cumulonimbus

TAF: LFBY 090800Z 0909/0918 07005KT CAVOK

Weather observations and forecasts of more than 4000 airports (METAR and TAF reports).

The available stations are represented by yellow and red dots on the map.

Hover mouse over dot to see the name of the station.

Then click to see weather observations and forecasts.

To change the map : click on the green buttons with a black cross to zoom in, on the green button with a dash to zoom out, or on the green arrows for adjacent maps.


METAR-TAF: